Details From KHWD - Hayward Executive
To KLVK - Livermore Muni
Flight Number -
Tags generated
Created
Modified
Stats Distance 17 nm / 31 km
Max Altitude 0 ft / 0 m
Waypoints 3
Social Downloads 11
Likes 0
Share

Download

Looking for another format? Having issues loading an existing format? Contact us
Advertisement - Login to hide

Notes

None

Route

KHWD DECOT KLVK

ID Type Via Altitude (ft/m) Position (lat/lon) Dist (leg/tot) Name
O KHWD APT - 0 / 0 37.65925 / -122.12193 - / 0 nm Hayward Executive
DECOT FIX - 0 / 0 37.60604 / -122.04875 4 / 4 nm
O KLVK APT - 0 / 0 37.69318 / -121.82037 12 / 16 nm Livermore Muni

Altitude Profile

Advertisement - Login to hide

KHWD

Details ICAO KHWD (HWD)
Name Hayward Executive
Region United States
Timezone America/Los_Angeles (UTC-7.0)
Stats Elevation 52 ft / 16 m (AMSL)
Location 37.659300° -122.122000°
Runways 2
Magnetic Variation 12.984° E

METAR

KHWD 081854Z 27009KT 240V300 10SM SCT018 20/14 A3004 RMK AO2 SLP181 T02000139

Decode

TAF

Not found

Departure Runways

ID Width Length Bearing (true/mag) Surface Threshold Overrun Markings Lighting
10L 75 ft / 23 m 3,106 ft / 947 m 119.97° / 106.98° ASPHALT 0 ft / 0 m 0 ft / 0 m VISUAL EDGE THRESHOLD
10R 150 ft / 46 m 5,695 ft / 1,736 m 119.96° / 106.97° ASPHALT 827 ft / 252 m 0 ft / 0 m PREC-APP EDGE THRESHOLD REIL-OMNI
28L 150 ft / 46 m 5,695 ft / 1,736 m 299.97° / 286.98° ASPHALT 676 ft / 206 m 0 ft / 0 m PREC-APP EDGE THRESHOLD REIL-OMNI
28R 75 ft / 23 m 3,106 ft / 947 m 299.97° / 286.99° ASPHALT 0 ft / 0 m 0 ft / 0 m VISUAL EDGE THRESHOLD

KLVK

Details ICAO KLVK (LVK)
Name Livermore Muni
Region United States
Timezone America/Los_Angeles (UTC-7.0)
Stats Elevation 399 ft / 122 m (AMSL)
Location 37.693200° -121.820000°
Runways 2
Magnetic Variation 12.943° E

METAR

KLVK 081853Z 29010KT 10SM CLR 24/13 A3002 RMK AO2 SLP160 T02390128

Decode

TAF

TAF KLVK 081739Z 0818/0918 27008KT P6SM SKC FM082100 29015KT P6SM SKC FM090600 27005KT P6SM FEW014

Decode

Destination Runways

ID Width Length Bearing (true/mag) Surface Threshold Overrun Markings Lighting
07L 98 ft / 30 m 5,241 ft / 1,598 m 90.57° / 77.63° ASPHALT 0 ft / 0 m 151 ft / 46 m PREC-APP EDGE THRESHOLD
07R 75 ft / 23 m 2,694 ft / 821 m 90.58° / 77.64° ASPHALT 0 ft / 0 m 0 ft / 0 m VISUAL
25L 75 ft / 23 m 2,694 ft / 821 m 270.58° / 257.64° ASPHALT 0 ft / 0 m 0 ft / 0 m VISUAL
25R 98 ft / 30 m 5,241 ft / 1,598 m 270.58° / 257.64° ASPHALT 0 ft / 0 m 151 ft / 46 m PREC-APP EDGE THRESHOLD MALSR

Approach Navaids

Runway Type Ident Frequency Range Bearing (true/mag) Slope Elevation
25R LOC-ILS ILVK 110.50 MHz 18 nm / 33 km 270.56° / 257.62 ° - 365 ft / 111 m (AMSL)
25R GS ILVK 110.50 MHz 10 nm / 19 km 271.15° / 258.20 ° 3.00° 393 ft / 120 m (AMSL)
25R OM OM - - 270.57° / 257.63 ° - 683 ft / 208 m (AMSL)
25R MM MM - - 270.57° / 257.63 ° - 400 ft / 122 m (AMSL)

Popular Alternatives